createdAt,value
2016-05-13T00:00:06.322Z,971.34
2016-05-13T00:01:06.324Z,971.36
2016-05-13T00:02:06.327Z,971.44
2016-05-13T00:03:06.329Z,971.43
2016-05-13T00:04:06.316Z,971.38
2016-05-13T00:05:06.335Z,971.42
2016-05-13T00:06:06.369Z,971.42
2016-05-13T00:07:06.324Z,971.42
2016-05-13T00:08:06.343Z,971.41
2016-05-13T00:09:06.408Z,971.43
2016-05-13T00:10:06.332Z,971.41
2016-05-13T00:11:06.335Z,971.42
2016-05-13T00:12:06.338Z,971.44
2016-05-13T00:13:06.341Z,971.4
2016-05-13T00:14:06.343Z,971.42
2016-05-13T00:15:06.346Z,971.4
2016-05-13T00:16:06.348Z,971.43
2016-05-13T00:17:06.351Z,971.37
2016-05-13T00:18:06.353Z,971.37
2016-05-13T00:19:06.356Z,971.38
2016-05-13T00:20:06.360Z,971.37
2016-05-13T00:21:06.362Z,971.36
2016-05-13T00:22:06.349Z,971.35
2016-05-13T00:23:06.367Z,971.35
2016-05-13T00:24:06.370Z,971.35
2016-05-13T00:25:06.373Z,971.36
2016-05-13T00:26:06.375Z,971.37
2016-05-13T00:27:06.362Z,971.37
2016-05-13T00:28:06.381Z,971.39
2016-05-13T00:29:06.383Z,971.38
2016-05-13T00:30:06.386Z,971.35
2016-05-13T00:31:06.389Z,971.43
2016-05-13T00:32:06.375Z,971.36
2016-05-13T00:33:06.379Z,971.39
2016-05-13T00:34:06.381Z,971.39
2016-05-13T00:35:06.384Z,971.4
2016-05-13T00:36:06.386Z,971.37
2016-05-13T00:37:06.389Z,971.4
2016-05-13T00:38:06.376Z,971.42
2016-05-13T00:39:06.379Z,971.4
2016-05-13T00:40:06.382Z,971.4
2016-05-13T00:41:06.400Z,971.38
2016-05-13T00:42:06.403Z,971.4
2016-05-13T00:43:06.405Z,971.42
2016-05-13T00:44:06.393Z,971.38
2016-05-13T00:45:06.395Z,971.37
2016-05-13T00:46:06.398Z,971.43
2016-05-13T00:47:06.401Z,971.39
2016-05-13T00:48:06.404Z,971.4
2016-05-13T00:49:06.406Z,971.36
2016-05-13T00:50:06.409Z,971.39
2016-05-13T00:51:06.411Z,971.38
2016-05-13T00:52:06.414Z,971.37
2016-05-13T00:53:06.417Z,971.41
2016-05-13T00:54:06.419Z,971.37
2016-05-13T00:55:06.407Z,971.41
2016-05-13T00:56:06.409Z,971.4
2016-05-13T00:57:06.412Z,971.4
2016-05-13T00:58:06.415Z,971.41
2016-05-13T00:59:06.433Z,971.44
2016-05-13T01:00:06.420Z,971.41
2016-05-13T01:01:06.422Z,971.45
2016-05-13T01:02:06.436Z,971.43
2016-05-13T01:03:06.482Z,971.44
2016-05-13T01:04:06.529Z,971.48
2016-05-13T01:05:06.574Z,971.4
2016-05-13T01:06:06.621Z,971.44
2016-05-13T01:07:06.659Z,971.44
2016-05-13T01:08:06.678Z,971.44
2016-05-13T01:09:06.697Z,971.45
2016-05-13T01:10:06.715Z,971.41
2016-05-13T01:11:06.717Z,971.44
2016-05-13T01:12:06.733Z,971.44
2016-05-13T01:13:06.741Z,971.46
2016-05-13T01:14:06.749Z,971.44
2016-05-13T01:15:06.758Z,971.43
2016-05-13T01:16:06.766Z,971.46
2016-05-13T01:17:06.773Z,971.48
2016-05-13T01:18:06.777Z,971.47
2016-05-13T01:19:06.782Z,971.42
2016-05-13T01:20:06.786Z,971.42
2016-05-13T01:21:06.791Z,971.5
2016-05-13T01:22:06.795Z,971.46
2016-05-13T01:23:06.799Z,971.48
2016-05-13T01:24:10.334Z,971.48
2016-05-13T01:25:06.806Z,971.46
2016-05-13T01:26:06.810Z,971.48
2016-05-13T01:27:06.812Z,971.45
2016-05-13T01:28:06.801Z,971.42
2016-05-13T01:29:06.804Z,971.46
2016-05-13T01:30:06.821Z,971.47
2016-05-13T01:31:06.810Z,971.45
2016-05-13T01:32:06.828Z,971.49
2016-05-13T01:33:06.987Z,971.42
2016-05-13T01:34:06.818Z,971.51
2016-05-13T01:35:06.820Z,971.43
2016-05-13T01:36:06.823Z,971.45
2016-05-13T01:37:06.827Z,971.46
2016-05-13T01:38:06.829Z,971.48
2016-05-13T01:39:06.832Z,971.49
2016-05-13T01:40:06.834Z,971.48
2016-05-13T01:41:06.837Z,971.5
2016-05-13T01:42:06.840Z,971.53
2016-05-13T01:43:06.842Z,971.53
2016-05-13T01:44:06.845Z,971.53
2016-05-13T01:45:06.848Z,971.5
2016-05-13T01:46:06.850Z,971.55
2016-05-13T01:47:06.837Z,971.5
2016-05-13T01:48:06.840Z,971.52
2016-05-13T01:49:06.859Z,971.56
2016-05-13T01:50:06.862Z,971.54
2016-05-13T01:51:06.848Z,971.54
2016-05-13T01:52:06.851Z,971.55
2016-05-13T01:53:06.853Z,971.53
2016-05-13T01:54:06.856Z,971.54
2016-05-13T01:55:06.858Z,971.56
2016-05-13T01:56:06.861Z,971.61
2016-05-13T01:57:06.864Z,971.54
2016-05-13T01:58:06.883Z,971.56
2016-05-13T01:59:06.870Z,971.58
2016-05-13T02:00:06.872Z,971.57
2016-05-13T02:01:06.875Z,971.59
2016-05-13T02:02:06.862Z,971.59
2016-05-13T02:03:06.880Z,971.59
2016-05-13T02:04:06.868Z,971.55
2016-05-13T02:05:06.871Z,971.57
2016-05-13T02:06:06.873Z,971.58
2016-05-13T02:07:06.876Z,971.58
2016-05-13T02:08:06.878Z,971.56
2016-05-13T02:09:06.882Z,971.6
2016-05-13T02:10:06.884Z,971.56
2016-05-13T02:11:06.887Z,971.54
2016-05-13T02:12:06.890Z,971.58
2016-05-13T02:13:06.892Z,971.59
2016-05-13T02:14:06.894Z,971.59
2016-05-13T02:15:06.897Z,971.59
2016-05-13T02:16:06.901Z,971.61
2016-05-13T02:17:06.887Z,971.6
2016-05-13T02:18:07.124Z,971.6
2016-05-13T02:19:06.892Z,971.6
2016-05-13T02:20:06.894Z,971.62
2016-05-13T02:21:06.897Z,971.61
2016-05-13T02:22:06.916Z,971.61
2016-05-13T02:23:06.903Z,971.6
2016-05-13T02:24:06.906Z,971.63
2016-05-13T02:25:06.908Z,971.61
2016-05-13T02:26:06.911Z,971.6
2016-05-13T02:27:06.914Z,971.61
2016-05-13T02:28:06.916Z,971.56
2016-05-13T02:29:06.919Z,971.59
2016-05-13T02:30:06.906Z,971.59
2016-05-13T02:31:06.909Z,971.57
2016-05-13T02:32:06.911Z,971.56
2016-05-13T02:33:06.930Z,971.59
2016-05-13T02:34:06.916Z,971.6
2016-05-13T02:35:06.919Z,971.52
2016-05-13T02:36:06.921Z,971.59
2016-05-13T02:37:06.924Z,971.56
2016-05-13T02:38:06.928Z,971.56
2016-05-13T02:39:06.930Z,971.6
2016-05-13T02:40:06.933Z,971.57
2016-05-13T02:41:06.935Z,971.59
2016-05-13T02:42:06.923Z,971.55
2016-05-13T02:43:06.941Z,971.6
2016-05-13T02:44:06.943Z,971.55
2016-05-13T02:45:06.946Z,971.54
2016-05-13T02:46:06.934Z,971.55
2016-05-13T02:47:06.936Z,971.5
2016-05-13T02:48:06.954Z,971.51
2016-05-13T02:49:06.942Z,971.51
2016-05-13T02:50:06.945Z,971.51
2016-05-13T02:51:06.948Z,971.48
2016-05-13T02:52:06.950Z,971.47
2016-05-13T02:53:06.952Z,971.49
2016-05-13T02:54:06.955Z,971.52
2016-05-13T02:55:06.958Z,971.47
2016-05-13T02:56:06.944Z,971.53
2016-05-13T02:57:06.964Z,971.54
2016-05-13T02:58:06.950Z,971.55
2016-05-13T02:59:06.953Z,971.55
2016-05-13T03:00:06.955Z,971.56
2016-05-13T03:01:06.958Z,971.57
2016-05-13T03:02:06.961Z,971.6
2016-05-13T03:03:06.963Z,971.61
2016-05-13T03:04:06.966Z,971.64
2016-05-13T03:05:06.969Z,971.61
2016-05-13T03:06:06.972Z,971.64
2016-05-13T03:07:06.974Z,971.61
2016-05-13T03:08:06.977Z,971.63
2016-05-13T03:09:06.964Z,971.69
2016-05-13T03:10:06.983Z,971.66
2016-05-13T03:11:06.969Z,971.67
2016-05-13T03:12:06.988Z,971.65
2016-05-13T03:13:06.974Z,971.68
2016-05-13T03:14:06.993Z,971.7
2016-05-13T03:15:06.996Z,971.68
2016-05-13T03:16:06.998Z,971.72
2016-05-13T03:17:06.985Z,971.74
2016-05-13T03:18:06.988Z,971.72
2016-05-13T03:19:06.990Z,971.76
2016-05-13T03:20:06.993Z,971.74
2016-05-13T03:21:06.995Z,971.81
2016-05-13T03:22:06.998Z,971.78
2016-05-13T03:23:07.002Z,971.74
2016-05-13T03:24:07.004Z,971.78
2016-05-13T03:25:07.007Z,971.77
2016-05-13T03:26:06.994Z,971.78
2016-05-13T03:27:06.997Z,971.79
2016-05-13T03:28:07.000Z,971.8
2016-05-13T03:29:07.002Z,971.76
2016-05-13T03:30:07.005Z,971.8
2016-05-13T03:31:07.008Z,971.79
2016-05-13T03:32:07.010Z,971.83
2016-05-13T03:33:07.013Z,971.82
2016-05-13T03:34:07.016Z,971.8
2016-05-13T03:35:07.019Z,971.8
2016-05-13T03:36:07.006Z,971.81
2016-05-13T03:37:07.008Z,971.87
2016-05-13T03:38:07.011Z,971.83
2016-05-13T03:39:07.013Z,971.8
2016-05-13T03:40:07.016Z,971.82
2016-05-13T03:41:07.034Z,971.83
2016-05-13T03:42:07.022Z,971.84
2016-05-13T03:43:07.024Z,971.85
2016-05-13T03:44:07.027Z,971.82
2016-05-13T03:45:07.030Z,971.81
2016-05-13T03:46:07.032Z,971.84
2016-05-13T03:47:07.035Z,971.83
2016-05-13T03:48:07.038Z,971.86
2016-05-13T03:49:07.025Z,971.84
2016-05-13T03:50:07.028Z,971.9
2016-05-13T03:51:07.031Z,971.87
2016-05-13T03:52:07.033Z,971.86
2016-05-13T03:53:07.036Z,971.84
2016-05-13T03:54:07.039Z,971.84
2016-05-13T03:55:07.042Z,971.87
2016-05-13T03:56:07.044Z,971.86
2016-05-13T03:57:07.047Z,971.88
2016-05-13T03:58:07.049Z,971.87
2016-05-13T03:59:07.036Z,971.85
2016-05-13T04:00:07.039Z,971.88
2016-05-13T04:01:07.041Z,971.88
2016-05-13T04:02:07.045Z,971.9
2016-05-13T04:03:07.047Z,971.88
2016-05-13T04:04:07.050Z,971.87
2016-05-13T04:05:07.052Z,971.88
2016-05-13T04:06:07.055Z,971.9
2016-05-13T04:07:07.057Z,971.87
2016-05-13T04:08:07.061Z,971.87
2016-05-13T04:09:07.063Z,971.88
2016-05-13T04:10:07.050Z,971.91
2016-05-13T04:11:07.052Z,971.88
2016-05-13T04:12:07.055Z,971.89
2016-05-13T04:13:07.058Z,971.85
2016-05-13T04:14:07.061Z,971.89
2016-05-13T04:15:07.063Z,971.87
2016-05-13T04:16:07.066Z,971.88
2016-05-13T04:17:07.068Z,971.88
2016-05-13T04:18:07.056Z,971.9
2016-05-13T04:19:07.074Z,971.92
2016-05-13T04:20:07.062Z,971.9
2016-05-13T04:21:07.065Z,971.92
2016-05-13T04:22:07.067Z,971.95
2016-05-13T04:23:07.070Z,971.97
2016-05-13T04:24:07.072Z,971.98
2016-05-13T04:25:07.075Z,971.97
2016-05-13T04:26:07.077Z,971.96
2016-05-13T04:27:07.081Z,972.02
2016-05-13T04:28:07.067Z,971.97
2016-05-13T04:29:07.086Z,972
2016-05-13T04:30:07.089Z,972
2016-05-13T04:31:07.075Z,971.98
2016-05-13T04:32:07.078Z,972.03
2016-05-13T04:33:07.252Z,971.98
2016-05-13T04:34:07.099Z,972
2016-05-13T04:35:07.086Z,972.02
2016-05-13T04:36:07.089Z,971.99
2016-05-13T04:37:07.091Z,972.04
2016-05-13T04:38:07.094Z,972.03
2016-05-13T04:39:07.097Z,972.04
2016-05-13T04:40:07.084Z,972.07
2016-05-13T04:41:07.086Z,972.07
2016-05-13T04:42:07.105Z,972.06
2016-05-13T04:43:07.091Z,972.07
2016-05-13T04:44:07.094Z,972.1
2016-05-13T04:45:07.096Z,972.09
2016-05-13T04:46:07.100Z,972.12
2016-05-13T04:47:07.103Z,972.13
2016-05-13T04:48:07.402Z,972.08
2016-05-13T04:49:07.107Z,972.12
2016-05-13T04:50:07.110Z,972.12
2016-05-13T04:51:07.112Z,972.12
2016-05-13T04:52:07.115Z,972.16
2016-05-13T04:53:07.104Z,972.18
2016-05-13T04:54:07.106Z,972.17
2016-05-13T04:55:07.108Z,972.21
2016-05-13T04:56:07.111Z,972.26
2016-05-13T04:57:07.114Z,972.23
2016-05-13T04:58:07.117Z,972.25
2016-05-13T04:59:07.120Z,972.24
2016-05-13T05:00:07.122Z,972.26
2016-05-13T05:01:07.125Z,972.28
2016-05-13T05:02:07.127Z,972.27
2016-05-13T05:03:07.130Z,972.29
2016-05-13T05:04:07.133Z,972.27
2016-05-13T05:05:07.136Z,972.26
2016-05-13T05:06:07.139Z,972.31
2016-05-13T05:07:07.125Z,972.26
2016-05-13T05:08:07.128Z,972.35
2016-05-13T05:09:07.130Z,972.38
2016-05-13T05:10:07.149Z,972.36
2016-05-13T05:11:07.135Z,972.34
2016-05-13T05:12:07.139Z,972.37
2016-05-13T05:13:07.141Z,972.36
2016-05-13T05:14:07.144Z,972.37
2016-05-13T05:15:07.147Z,972.42
2016-05-13T05:16:07.134Z,972.42
2016-05-13T05:17:07.152Z,972.38
2016-05-13T05:18:07.154Z,972.46
2016-05-13T05:19:07.142Z,972.42
2016-05-13T05:20:07.145Z,972.43
2016-05-13T05:21:07.163Z,972.48
2016-05-13T05:22:07.150Z,972.49
2016-05-13T05:23:07.153Z,972.5
2016-05-13T05:24:07.155Z,972.47
2016-05-13T05:25:07.159Z,972.53
2016-05-13T05:26:07.161Z,972.51
2016-05-13T05:27:07.164Z,972.51
2016-05-13T05:28:07.150Z,972.51
2016-05-13T05:29:07.153Z,972.47
2016-05-13T05:30:07.155Z,972.49
2016-05-13T05:31:07.158Z,972.51
2016-05-13T05:32:07.162Z,972.52
2016-05-13T05:33:07.164Z,972.55
2016-05-13T05:34:07.167Z,972.54
2016-05-13T05:35:07.169Z,972.56
2016-05-13T05:36:07.172Z,972.57
2016-05-13T05:37:07.175Z,972.52
2016-05-13T05:38:07.177Z,972.57
2016-05-13T05:39:07.180Z,972.57
2016-05-13T05:40:07.183Z,972.58
2016-05-13T05:41:07.170Z,972.58
2016-05-13T05:42:07.172Z,972.61
2016-05-13T05:43:07.175Z,972.59
2016-05-13T05:44:07.177Z,972.61
2016-05-13T05:45:07.180Z,972.62
2016-05-13T05:46:07.182Z,972.59
2016-05-13T05:47:07.185Z,972.59
2016-05-13T05:48:07.189Z,972.59
2016-05-13T05:49:07.191Z,972.61
2016-05-13T05:50:07.194Z,972.65
2016-05-13T05:51:07.196Z,972.64
2016-05-13T05:52:07.199Z,972.66
2016-05-13T05:53:07.187Z,972.69
2016-05-13T05:54:07.189Z,972.7
2016-05-13T05:55:07.223Z,972.71
2016-05-13T05:56:07.194Z,972.68
2016-05-13T05:57:07.213Z,972.7
2016-05-13T05:58:07.200Z,972.71
2016-05-13T05:59:07.203Z,972.74
2016-05-13T06:00:07.206Z,972.76
2016-05-13T06:01:07.208Z,972.71
2016-05-13T06:02:07.211Z,972.76
2016-05-13T06:03:07.213Z,972.74
2016-05-13T06:04:07.216Z,972.79
2016-05-13T06:05:07.219Z,972.77
2016-05-13T06:06:07.222Z,972.72
2016-05-13T06:07:07.208Z,972.73
2016-05-13T06:08:07.211Z,972.75
2016-05-13T06:09:07.214Z,972.78
2016-05-13T06:10:07.233Z,972.74
2016-05-13T06:11:07.219Z,972.76
2016-05-13T06:12:07.237Z,972.75
2016-05-13T06:13:07.224Z,972.75
2016-05-13T06:14:07.227Z,972.79
2016-05-13T06:15:07.230Z,972.81
2016-05-13T06:16:07.232Z,972.78
2016-05-13T06:17:07.219Z,972.8
2016-05-13T06:18:07.426Z,972.83
2016-05-13T06:19:07.225Z,972.82
2016-05-13T06:20:07.228Z,972.82
2016-05-13T06:21:07.230Z,972.82
2016-05-13T06:22:07.233Z,972.81
2016-05-13T06:23:07.236Z,972.81
2016-05-13T06:24:07.238Z,972.88
2016-05-13T06:25:07.241Z,972.85
2016-05-13T06:26:07.243Z,972.86
2016-05-13T06:27:07.246Z,972.89
2016-05-13T06:28:07.249Z,972.9
2016-05-13T06:29:07.237Z,972.91
2016-05-13T06:30:07.239Z,972.95
2016-05-13T06:31:07.242Z,972.92
2016-05-13T06:32:07.244Z,972.99
2016-05-13T06:33:07.248Z,973
2016-05-13T06:34:07.250Z,972.99
2016-05-13T06:35:07.252Z,973.04
2016-05-13T06:36:07.255Z,973.01
2016-05-13T06:37:07.273Z,973.05
2016-05-13T06:38:07.260Z,973.03
2016-05-13T06:39:07.264Z,973.03
2016-05-13T06:40:07.266Z,973.01
2016-05-13T06:41:07.268Z,972.99
2016-05-13T06:42:07.271Z,973
2016-05-13T06:43:07.275Z,972.99
2016-05-13T06:44:07.276Z,973.02
2016-05-13T06:45:07.279Z,972.99
2016-05-13T06:46:07.282Z,973.04
2016-05-13T06:47:07.285Z,973.05
2016-05-13T06:48:07.272Z,973.06
2016-05-13T06:49:07.274Z,973.08
2016-05-13T06:50:07.277Z,973.08
2016-05-13T06:51:07.279Z,973.09
2016-05-13T06:52:07.282Z,973.11
2016-05-13T06:53:07.285Z,973.12
2016-05-13T06:54:07.287Z,973.1
2016-05-13T06:55:07.290Z,973.1
2016-05-13T06:56:07.293Z,973.1
2016-05-13T06:57:07.296Z,973.12
2016-05-13T06:58:07.299Z,973.16
2016-05-13T06:59:07.301Z,973.13
2016-05-13T07:00:07.303Z,973.16
2016-05-13T07:01:07.307Z,973.17
2016-05-13T07:02:07.310Z,973.22
2016-05-13T07:03:07.312Z,973.18
2016-05-13T07:04:07.315Z,973.17
2016-05-13T07:05:07.317Z,973.21
2016-05-13T07:06:07.320Z,973.22
2016-05-13T07:07:07.323Z,973.23
2016-05-13T07:08:07.325Z,973.23
2016-05-13T07:09:07.328Z,973.22
2016-05-13T07:10:07.315Z,973.22
2016-05-13T07:11:07.319Z,973.22
2016-05-13T07:12:07.321Z,973.26
2016-05-13T07:13:07.323Z,973.26
2016-05-13T07:14:07.327Z,973.27
2016-05-13T07:15:07.329Z,973.28
2016-05-13T07:16:07.332Z,973.22
2016-05-13T07:17:07.335Z,973.28
2016-05-13T07:18:07.337Z,973.29
2016-05-13T07:19:07.339Z,973.3
2016-05-13T07:20:07.343Z,973.29
2016-05-13T07:21:07.345Z,973.32
2016-05-13T07:22:07.363Z,973.29
2016-05-13T07:23:07.351Z,973.26
2016-05-13T07:24:07.354Z,973.32
2016-05-13T07:25:07.356Z,973.29
2016-05-13T07:26:07.358Z,973.28
2016-05-13T07:27:07.377Z,973.31
2016-05-13T07:28:07.364Z,973.27
2016-05-13T07:29:07.367Z,973.3
2016-05-13T07:30:07.370Z,973.28
2016-05-13T07:31:07.372Z,973.34
2016-05-13T07:32:07.375Z,973.34
2016-05-13T07:33:07.378Z,973.32
2016-05-13T07:34:07.380Z,973.31
2016-05-13T07:35:07.383Z,973.35
2016-05-13T07:36:07.385Z,973.28
2016-05-13T07:37:07.388Z,973.33
2016-05-13T07:38:07.391Z,973.34
2016-05-13T07:39:07.394Z,973.36
2016-05-13T07:40:07.380Z,973.33
2016-05-13T07:41:07.383Z,973.33
2016-05-13T07:42:07.402Z,973.31
2016-05-13T07:43:07.405Z,973.35
2016-05-13T07:44:07.408Z,973.38
2016-05-13T07:45:07.394Z,973.39
2016-05-13T07:46:07.412Z,973.4
2016-05-13T07:47:07.415Z,973.43
2016-05-13T07:48:07.402Z,973.43
2016-05-13T07:49:07.405Z,973.41
2016-05-13T07:50:07.424Z,973.48
2016-05-13T07:51:07.426Z,973.5
2016-05-13T07:52:07.413Z,973.46
2016-05-13T07:53:07.432Z,973.48
2016-05-13T07:54:07.418Z,973.45
2016-05-13T07:55:07.421Z,973.48
2016-05-13T07:56:07.439Z,973.47
2016-05-13T07:57:07.426Z,973.49
2016-05-13T07:58:07.429Z,973.55
2016-05-13T07:59:07.432Z,973.51
2016-05-13T08:00:07.434Z,973.53
2016-05-13T08:01:07.437Z,973.55
2016-05-13T08:02:07.440Z,973.51
2016-05-13T08:03:07.442Z,973.56
2016-05-13T08:04:07.445Z,973.59
2016-05-13T08:05:07.447Z,973.56
2016-05-13T08:06:07.467Z,973.59
2016-05-13T08:07:07.453Z,973.62
2016-05-13T08:08:07.456Z,973.58
2016-05-13T08:09:07.459Z,973.59
2016-05-13T08:10:07.462Z,973.59
2016-05-13T08:11:07.464Z,973.6
2016-05-13T08:12:07.466Z,973.61
2016-05-13T08:13:07.469Z,973.61
2016-05-13T08:14:07.472Z,973.61
2016-05-13T08:15:07.459Z,973.65
2016-05-13T08:16:07.478Z,973.65
2016-05-13T08:17:07.480Z,973.63
2016-05-13T08:18:07.483Z,973.65
2016-05-13T08:19:07.470Z,973.68
2016-05-13T08:20:07.472Z,973.71
2016-05-13T08:21:07.507Z,973.7
2016-05-13T08:22:07.477Z,973.72
2016-05-13T08:23:07.481Z,973.71
2016-05-13T08:24:07.483Z,973.75
2016-05-13T08:25:07.485Z,973.75
2016-05-13T08:26:07.521Z,973.74
2016-05-13T08:27:07.569Z,973.75
2016-05-13T08:28:07.510Z,973.78
2016-05-13T08:29:07.496Z,973.79
2016-05-13T08:30:07.499Z,973.77
2016-05-13T08:31:07.502Z,973.75
2016-05-13T08:32:07.504Z,973.75
2016-05-13T08:33:07.507Z,973.78
2016-05-13T08:34:07.526Z,973.8
2016-05-13T08:35:07.512Z,973.74
2016-05-13T08:36:07.515Z,973.77
2016-05-13T08:37:07.518Z,973.77
2016-05-13T08:38:07.521Z,973.75
2016-05-13T08:39:07.524Z,973.73
2016-05-13T08:40:07.526Z,973.72
2016-05-13T08:41:07.529Z,973.77
2016-05-13T08:42:07.531Z,973.79
2016-05-13T08:43:07.534Z,973.8
2016-05-13T08:44:07.537Z,973.79
2016-05-13T08:45:07.539Z,973.82
2016-05-13T08:46:07.542Z,973.83
2016-05-13T08:47:07.545Z,973.84
2016-05-13T08:48:07.548Z,973.83
2016-05-13T08:49:07.550Z,973.85
2016-05-13T08:50:07.553Z,973.88
2016-05-13T08:51:07.540Z,973.89
2016-05-13T08:52:07.558Z,973.92
2016-05-13T08:53:07.546Z,973.98
2016-05-13T08:54:07.564Z,973.99
2016-05-13T08:55:07.551Z,973.98
2016-05-13T08:56:07.554Z,974.01
2016-05-13T08:57:07.557Z,974.04
2016-05-13T08:58:07.574Z,974.08
2016-05-13T08:59:07.562Z,974.11
2016-05-13T09:00:07.580Z,974.07
2016-05-13T09:01:07.583Z,974.11
2016-05-13T09:02:07.570Z,974.1
2016-05-13T09:03:07.901Z,974.12
2016-05-13T09:04:07.575Z,974.1
2016-05-13T09:05:07.593Z,974.1
2016-05-13T09:06:07.581Z,974.15
2016-05-13T09:07:07.583Z,974.1
2016-05-13T09:08:07.586Z,974.13
2016-05-13T09:09:07.604Z,974.19
2016-05-13T09:10:07.592Z,974.18
2016-05-13T09:11:07.609Z,974.19
2016-05-13T09:12:07.597Z,974.21
2016-05-13T09:13:07.600Z,974.21
2016-05-13T09:14:07.603Z,974.23
2016-05-13T09:15:07.605Z,974.24
2016-05-13T09:16:07.608Z,974.24
2016-05-13T09:17:07.610Z,974.26
2016-05-13T09:18:07.613Z,974.27
2016-05-13T09:19:07.616Z,974.33
2016-05-13T09:20:07.619Z,974.3
2016-05-13T09:21:07.621Z,974.29
2016-05-13T09:22:07.624Z,974.32
2016-05-13T09:23:07.642Z,974.32
2016-05-13T09:24:07.629Z,974.33
2016-05-13T09:25:07.632Z,974.32
2016-05-13T09:26:07.635Z,974.36
2016-05-13T09:27:07.638Z,974.4
2016-05-13T09:28:07.640Z,974.37
2016-05-13T09:29:07.643Z,974.4
2016-05-13T09:30:07.645Z,974.43
2016-05-13T09:31:07.648Z,974.4
2016-05-13T09:32:07.651Z,974.42
2016-05-13T09:33:07.654Z,974.44
2016-05-13T09:34:07.656Z,974.46
2016-05-13T09:35:07.659Z,974.49
2016-05-13T09:36:07.662Z,974.5
2016-05-13T09:37:07.664Z,974.51
2016-05-13T09:38:07.667Z,974.56
2016-05-13T09:39:07.669Z,974.59
2016-05-13T09:40:07.673Z,974.63
2016-05-13T09:41:07.659Z,974.58
2016-05-13T09:42:07.678Z,974.63
2016-05-13T09:43:07.805Z,974.58
2016-05-13T09:44:07.667Z,974.66
2016-05-13T09:45:07.686Z,974.69
2016-05-13T09:46:07.672Z,974.72
2016-05-13T09:47:07.675Z,974.75
2016-05-13T09:48:07.694Z,974.75
2016-05-13T09:49:07.696Z,974.78
2016-05-13T09:50:07.683Z,974.79
2016-05-13T09:51:07.686Z,974.77
2016-05-13T09:52:07.688Z,974.78
2016-05-13T09:53:07.691Z,974.83
2016-05-13T09:54:07.694Z,974.84
2016-05-13T09:55:07.696Z,974.86
2016-05-13T09:56:07.699Z,974.83
2016-05-13T09:57:07.702Z,974.82
2016-05-13T09:58:07.704Z,974.94
2016-05-13T09:59:07.708Z,974.88
2016-05-13T10:00:07.710Z,974.93
2016-05-13T10:01:07.713Z,974.88
2016-05-13T10:02:07.715Z,974.96
2016-05-13T10:03:07.718Z,974.89
2016-05-13T10:04:07.721Z,974.87
2016-05-13T10:05:07.723Z,974.9
2016-05-13T10:06:07.726Z,974.91
2016-05-13T10:07:07.713Z,974.93
2016-05-13T10:08:07.734Z,974.93
2016-05-13T10:09:07.796Z,974.89
2016-05-13T10:10:07.841Z,974.92
2016-05-13T10:11:07.887Z,974.95
2016-05-13T10:12:07.932Z,974.95
2016-05-13T10:13:07.950Z,974.94
2016-05-13T10:14:07.984Z,974.97
2016-05-13T10:15:07.986Z,974.97
2016-05-13T10:16:08.003Z,974.99
2016-05-13T10:17:08.022Z,974.96
2016-05-13T10:18:08.035Z,975.01
2016-05-13T10:19:08.043Z,975.02
2016-05-13T10:20:08.051Z,975.02
2016-05-13T10:21:08.059Z,975.01
2016-05-13T10:22:08.067Z,975.01
2016-05-13T10:23:08.074Z,975.03
2016-05-13T10:24:08.078Z,975.08
2016-05-13T10:25:08.083Z,975.03
2016-05-13T10:26:08.088Z,975.04
2016-05-13T10:27:08.093Z,975.05
2016-05-13T10:28:08.096Z,975.01
2016-05-13T10:29:08.100Z,975.03
2016-05-13T10:30:08.103Z,975.06
2016-05-13T10:31:08.106Z,975.05
2016-05-13T10:32:08.110Z,975.01
2016-05-13T10:33:08.114Z,975.02
2016-05-13T10:34:08.116Z,975
2016-05-13T10:35:08.119Z,975.03
2016-05-13T10:36:08.139Z,975.03
2016-05-13T10:37:08.111Z,975.06
2016-05-13T10:38:08.113Z,975.04
2016-05-13T10:39:08.131Z,975.05
2016-05-13T10:40:08.119Z,975.08
2016-05-13T10:41:08.122Z,975.13
2016-05-13T10:42:08.139Z,975.1
2016-05-13T10:43:08.142Z,975.11
2016-05-13T10:44:08.130Z,975.13
2016-05-13T10:45:08.132Z,975.14
2016-05-13T10:46:08.135Z,975.14
2016-05-13T10:47:08.137Z,975.16
2016-05-13T10:48:08.140Z,975.11
2016-05-13T10:49:08.143Z,975.16
2016-05-13T10:50:08.161Z,975.13
2016-05-13T10:51:08.149Z,975.14
2016-05-13T10:52:08.152Z,975.12
2016-05-13T10:53:08.154Z,975.12
2016-05-13T10:54:08.156Z,975.11
2016-05-13T10:55:08.159Z,975.09
2016-05-13T10:56:08.162Z,975.11
2016-05-13T10:57:08.164Z,975.18
2016-05-13T10:58:08.168Z,975.16
2016-05-13T10:59:08.170Z,975.18
2016-05-13T11:00:09.125Z,975.18
2016-05-13T11:01:08.175Z,975.18
2016-05-13T11:02:08.178Z,975.19
2016-05-13T11:03:08.400Z,975.21
2016-05-13T11:04:08.183Z,975.22
2016-05-13T11:05:08.186Z,975.25
2016-05-13T11:06:08.173Z,975.27
2016-05-13T11:07:08.175Z,975.3
2016-05-13T11:08:08.178Z,975.27
2016-05-13T11:09:08.197Z,975.26
2016-05-13T11:10:08.200Z,975.25
2016-05-13T11:11:08.202Z,975.26
2016-05-13T11:12:08.189Z,975.28
2016-05-13T11:13:08.192Z,975.29
2016-05-13T11:14:08.210Z,975.34
2016-05-13T11:15:08.213Z,975.3
2016-05-13T11:16:08.215Z,975.3
2016-05-13T11:17:08.218Z,975.32
2016-05-13T11:18:08.205Z,975.29
2016-05-13T11:19:08.224Z,975.39
2016-05-13T11:20:08.210Z,975.38
2016-05-13T11:21:08.213Z,975.34
2016-05-13T11:22:08.216Z,975.33
2016-05-13T11:23:08.219Z,975.32
2016-05-13T11:24:08.221Z,975.31
2016-05-13T11:25:08.240Z,975.31
2016-05-13T11:26:08.227Z,975.28
2016-05-13T11:27:08.229Z,975.29
2016-05-13T11:28:08.232Z,975.34
2016-05-13T11:29:08.251Z,975.32
2016-05-13T11:30:08.237Z,975.37
2016-05-13T11:31:08.240Z,975.34
2016-05-13T11:32:08.243Z,975.32
2016-05-13T11:33:08.323Z,975.37
2016-05-13T11:34:08.311Z,975.34
2016-05-13T11:35:08.251Z,975.32
2016-05-13T11:36:08.253Z,975.33
2016-05-13T11:37:08.256Z,975.33
2016-05-13T11:38:08.275Z,975.4
2016-05-13T11:39:08.262Z,975.43
2016-05-13T11:40:08.264Z,975.46
2016-05-13T11:41:08.267Z,975.43
2016-05-13T11:42:08.285Z,975.54
2016-05-13T11:43:08.272Z,975.6
2016-05-13T11:44:08.275Z,975.48
2016-05-13T11:45:08.277Z,975.47
2016-05-13T11:46:08.280Z,975.45
2016-05-13T11:47:08.283Z,975.54
2016-05-13T11:48:08.286Z,975.6
2016-05-13T11:49:08.305Z,975.62
2016-05-13T11:50:08.292Z,975.5
2016-05-13T11:51:08.310Z,975.52
2016-05-13T11:52:08.327Z,975.53
2016-05-13T11:53:08.315Z,975.56
2016-05-13T11:54:08.318Z,975.6
2016-05-13T11:55:08.321Z,975.65
2016-05-13T11:56:08.323Z,975.72
2016-05-13T11:57:08.326Z,975.76
2016-05-13T11:58:08.344Z,975.74
2016-05-13T11:59:08.331Z,975.72
2016-05-13T12:00:08.349Z,975.67
2016-05-13T12:01:08.351Z,975.65
2016-05-13T12:02:08.355Z,975.63
2016-05-13T12:03:08.357Z,975.71
2016-05-13T12:04:08.360Z,975.63
2016-05-13T12:05:08.363Z,975.65
2016-05-13T12:06:08.365Z,975.63
2016-05-13T12:07:08.384Z,975.53
2016-05-13T12:08:08.387Z,975.5
2016-05-13T12:09:08.373Z,975.49
2016-05-13T12:10:08.392Z,975.51
2016-05-13T12:11:08.395Z,975.51
2016-05-13T12:12:08.397Z,975.49
2016-05-13T12:13:08.400Z,975.49
2016-05-13T12:14:08.418Z,975.52
2016-05-13T12:15:08.405Z,975.55
2016-05-13T12:16:08.408Z,975.52
2016-05-13T12:17:08.411Z,975.51
2016-05-13T12:18:08.429Z,975.47
2016-05-13T12:19:08.416Z,975.42
2016-05-13T12:20:08.419Z,975.47
2016-05-13T12:21:08.438Z,975.47
2016-05-13T12:22:08.440Z,975.4
2016-05-13T12:23:08.443Z,975.39
2016-05-13T12:24:08.445Z,975.44
2016-05-13T12:25:08.449Z,975.47
2016-05-13T12:26:08.451Z,975.45
2016-05-13T12:27:08.469Z,975.46
2016-05-13T12:28:08.457Z,975.47
2016-05-13T12:29:08.459Z,975.47
2016-05-13T12:30:08.462Z,975.49
2016-05-13T12:31:08.465Z,975.53